createdAt,value
2022-09-21T00:02:18.663Z,89.86
2022-09-21T00:07:20.809Z,90.17
2022-09-21T00:12:20.951Z,90.12
2022-09-21T00:17:21.051Z,90.78
2022-09-21T00:22:20.347Z,91.54
2022-09-21T00:27:22.436Z,90.62
2022-09-21T00:32:21.590Z,91.33
2022-09-21T00:37:22.678Z,90.62
2022-09-21T00:42:24.805Z,90.41
2022-09-21T00:47:23.929Z,91.44
2022-09-21T00:52:25.129Z,91.17
2022-09-21T00:57:26.228Z,91.07
2022-09-21T01:02:27.633Z,91.89
2022-09-21T01:07:28.836Z,91.22
2022-09-21T01:12:30.930Z,89.17
2022-09-21T01:17:30.072Z,88.86
2022-09-21T01:22:31.181Z,88.56
2022-09-21T01:27:32.291Z,91.05
2022-09-21T01:32:33.618Z,92.02
2022-09-21T01:37:34.810Z,92.36
2022-09-21T01:42:36.025Z,90.89
2022-09-21T01:47:37.236Z,91.69
2022-09-21T01:52:39.352Z,92.86
2022-09-21T01:57:37.493Z,94.34
2022-09-21T02:02:38.718Z,95.10
2022-09-21T02:07:40.819Z,96.18
2022-09-21T02:12:40.061Z,95.36
2022-09-21T02:17:41.173Z,94.95
2022-09-21T02:22:43.379Z,95.40
2022-09-21T02:27:42.628Z,95.45
2022-09-21T02:32:43.875Z,95.14
2022-09-21T02:37:46.011Z,95.24
2022-09-21T02:42:45.169Z,95.34
2022-09-21T02:47:46.253Z,96.42
2022-09-21T02:52:47.429Z,97.75
2022-09-21T02:57:48.630Z,99.55
2022-09-21T03:02:49.827Z,98.42
2022-09-21T03:07:51.008Z,99.96
2022-09-21T03:12:52.142Z,98.00
2022-09-21T03:17:53.528Z,96.30
2022-09-21T03:22:54.612Z,97.53
2022-09-21T03:27:55.702Z,98.71
2022-09-21T03:32:56.795Z,98.61
2022-09-21T03:37:57.884Z,99.13
2022-09-21T03:42:59.121Z,98.15
2022-09-21T03:48:00.205Z,96.80
2022-09-21T03:53:01.293Z,98.45
2022-09-21T03:58:02.405Z,98.14
2022-09-21T04:03:03.627Z,97.26
2022-09-21T04:08:04.798Z,98.50
2022-09-21T04:13:06.030Z,97.98
2022-09-21T04:18:07.252Z,98.23
2022-09-21T04:23:08.497Z,97.77
2022-09-21T04:28:09.604Z,97.98
2022-09-21T04:33:10.738Z,99.57
2022-09-21T04:38:11.943Z,98.70
2022-09-21T04:43:13.090Z,98.85
2022-09-21T04:48:14.178Z,99.16
2022-09-21T04:53:15.267Z,98.49
2022-09-21T04:58:16.443Z,99.31
2022-09-21T05:03:17.757Z,98.18
2022-09-21T05:08:18.912Z,99.77
2022-09-21T05:13:20.008Z,98.74
2022-09-21T05:18:21.206Z,98.22
2022-09-21T05:23:22.307Z,98.01
2022-09-21T05:28:23.536Z,99.31
2022-09-21T05:33:25.928Z,98.69
2022-09-21T05:38:24.174Z,98.53
2022-09-21T05:43:26.303Z,99.05
2022-09-21T05:48:25.567Z,99.46
2022-09-21T05:53:26.774Z,99.31
2022-09-21T05:58:27.853Z,99.21
2022-09-21T06:03:29.075Z,98.96
2022-09-21T06:08:30.260Z,98.49
2022-09-21T06:13:31.440Z,97.98
2022-09-21T06:18:32.541Z,98.97
2022-09-21T06:23:33.755Z,98.83
2022-09-21T06:28:38.712Z,96.78
2022-09-21T06:33:35.935Z,95.56
2022-09-21T06:38:37.119Z,93.57
2022-09-21T06:43:38.326Z,91.74
2022-09-21T06:48:39.532Z,90.36
2022-09-21T06:53:40.624Z,89.25
2022-09-21T06:58:41.713Z,89.90
2022-09-21T07:03:42.875Z,87.77
2022-09-21T07:13:44.021Z,86.18
2022-09-21T07:18:49.032Z,85.63
2022-09-21T07:23:47.121Z,84.52
2022-09-21T07:28:46.295Z,83.09
2022-09-21T07:33:48.382Z,81.62
2022-09-21T07:38:47.472Z,82.97
2022-09-21T07:43:48.630Z,78.64
2022-09-21T07:48:49.713Z,79.73
2022-09-21T07:53:50.819Z,77.00
2022-09-21T07:58:52.018Z,77.08
2022-09-21T08:03:53.188Z,77.89
2022-09-21T08:08:57.814Z,76.09
2022-09-21T08:13:56.201Z,77.14
2022-09-21T08:18:55.470Z,75.48
2022-09-21T08:23:57.604Z,76.56
2022-09-21T08:28:56.717Z,76.56
2022-09-21T08:33:57.945Z,77.30
2022-09-21T08:39:02.110Z,77.85
2022-09-21T08:43:59.342Z,75.95
2022-09-21T08:49:00.713Z,76.25
2022-09-21T08:54:02.857Z,75.40
2022-09-21T08:59:01.948Z,74.45
2022-09-21T09:04:05.999Z,72.55
2022-09-21T09:09:03.241Z,72.28
2022-09-21T09:14:05.355Z,72.31
2022-09-21T09:19:04.702Z,68.41
2022-09-21T09:24:06.032Z,71.16
2022-09-21T09:29:06.395Z,69.60
2022-09-21T09:34:07.474Z,68.69
2022-09-21T09:39:08.811Z,69.13
2022-09-21T09:44:10.083Z,66.49
2022-09-21T09:49:11.201Z,64.28
2022-09-21T09:54:12.425Z,65.00
2022-09-21T09:59:14.503Z,66.76
2022-09-21T10:04:14.671Z,64.67
2022-09-21T10:09:13.857Z,64.97
2022-09-21T10:14:15.101Z,65.85
2022-09-21T10:19:16.301Z,65.85
2022-09-21T10:24:17.574Z,65.89
2022-09-21T10:29:18.802Z,64.48
2022-09-21T10:34:20.887Z,63.43
2022-09-21T10:39:20.021Z,63.15
2022-09-21T10:44:21.191Z,63.12
2022-09-21T10:49:22.275Z,65.45
2022-09-21T10:54:23.373Z,64.61
2022-09-21T10:59:24.525Z,64.58
2022-09-21T11:04:26.623Z,61.24
2022-09-21T11:09:25.751Z,62.90
2022-09-21T11:14:25.905Z,59.64
2022-09-21T11:19:28.025Z,59.91
2022-09-21T11:24:27.172Z,59.74
2022-09-21T11:29:28.347Z,57.43
2022-09-21T11:34:29.555Z,56.76
2022-09-21T11:39:30.764Z,54.83
2022-09-21T11:44:32.907Z,54.91
2022-09-21T11:49:33.062Z,54.53
2022-09-21T11:54:33.193Z,52.79
2022-09-21T11:59:33.329Z,54.21
2022-09-21T12:04:32.471Z,52.97
2022-09-21T12:09:33.733Z,51.64
2022-09-21T12:14:34.952Z,51.51
2022-09-21T12:19:36.168Z,50.80
2022-09-21T12:24:37.294Z,50.02
2022-09-21T12:29:38.523Z,50.24
2022-09-21T12:34:39.631Z,48.89
2022-09-21T12:39:40.780Z,52.11
2022-09-21T12:44:45.756Z,51.00
2022-09-21T12:49:43.201Z,49.39
2022-09-21T12:54:45.436Z,49.90
2022-09-21T12:59:45.122Z,50.68
2022-09-21T13:04:44.273Z,48.94
2022-09-21T13:09:45.398Z,52.64
2022-09-21T13:14:46.517Z,51.31
2022-09-21T13:19:47.619Z,51.54
2022-09-21T13:24:49.743Z,52.19
2022-09-21T13:29:48.914Z,52.19
2022-09-21T13:34:50.156Z,52.39
2022-09-21T13:39:51.285Z,51.76
2022-09-21T13:44:53.398Z,50.76
2022-09-21T13:49:55.915Z,51.06
2022-09-21T13:54:53.506Z,50.65
2022-09-21T13:59:52.716Z,51.56
2022-09-21T14:04:53.807Z,51.56
2022-09-21T14:09:55.030Z,52.94
2022-09-21T14:14:57.134Z,51.38
2022-09-21T14:19:56.336Z,51.97
2022-09-21T14:24:57.420Z,53.07
2022-09-21T14:29:58.671Z,53.14
2022-09-21T14:34:59.845Z,53.55
2022-09-21T14:40:01.062Z,52.97
2022-09-21T14:45:02.462Z,54.00
2022-09-21T14:50:06.884Z,52.89
2022-09-21T14:55:03.340Z,53.30
2022-09-21T15:00:04.447Z,53.70
2022-09-21T15:05:05.656Z,54.30
2022-09-21T15:10:06.788Z,54.30
2022-09-21T15:15:08.984Z,53.80
2022-09-21T15:20:08.212Z,54.91
2022-09-21T15:25:09.407Z,54.91
2022-09-21T15:30:10.547Z,54.73
2022-09-21T15:35:11.771Z,55.54
2022-09-21T15:40:13.913Z,55.31
2022-09-21T15:45:13.161Z,55.71
2022-09-21T15:50:14.240Z,55.91
2022-09-21T15:55:15.410Z,54.53
2022-09-21T16:00:16.563Z,55.87
2022-09-21T16:05:17.747Z,55.49
2022-09-21T16:10:19.299Z,57.10
2022-09-21T16:15:19.417Z,56.73
2022-09-21T16:20:18.637Z,56.76
2022-09-21T16:25:19.885Z,57.16
2022-09-21T16:30:21.100Z,57.69
2022-09-21T16:35:22.181Z,57.18
2022-09-21T16:40:23.336Z,57.89
2022-09-21T16:45:24.457Z,59.03
2022-09-21T16:50:25.654Z,60.07
2022-09-21T16:55:29.240Z,62.12
2022-09-21T17:00:26.562Z,61.65
2022-09-21T17:05:28.702Z,61.88
2022-09-21T17:10:27.845Z,62.49
2022-09-21T17:15:28.931Z,62.72
2022-09-21T17:20:30.279Z,64.37
2022-09-21T17:25:33.669Z,64.81
2022-09-21T17:30:32.804Z,64.64
2022-09-21T17:35:34.124Z,65.85
2022-09-21T17:40:36.679Z,65.88
2022-09-21T17:45:35.882Z,66.08
2022-09-21T17:50:40.134Z,66.32
2022-09-21T17:55:37.347Z,66.72
2022-09-21T18:00:39.464Z,66.66
2022-09-21T18:05:38.683Z,67.06
2022-09-21T18:10:40.774Z,66.96
2022-09-21T18:15:40.021Z,67.30
2022-09-21T18:20:41.215Z,68.32
2022-09-21T18:25:43.502Z,68.35
2022-09-21T18:30:42.730Z,68.55
2022-09-21T18:35:43.990Z,68.58
2022-09-21T18:40:45.247Z,69.60
2022-09-21T18:45:47.533Z,71.06
2022-09-21T18:50:46.788Z,73.77
2022-09-21T18:55:47.987Z,75.95
2022-09-21T19:00:49.220Z,76.32
2022-09-21T19:05:50.578Z,78.16
2022-09-21T19:10:52.087Z,78.77
2022-09-21T19:16:06.947Z,79.43
2022-09-21T19:20:51.617Z,81.60
2022-09-21T19:25:53.045Z,81.30
2022-09-21T19:30:58.264Z,83.28
2022-09-21T19:35:54.407Z,82.87
2022-09-21T19:40:55.518Z,83.89
2022-09-21T19:45:56.777Z,84.03
2022-09-21T19:50:58.891Z,84.69
2022-09-21T19:55:58.081Z,86.02
2022-09-21T20:00:59.405Z,86.77
2022-09-21T20:06:01.540Z,85.85
2022-09-21T20:11:00.723Z,88.24
2022-09-21T20:16:01.942Z,88.76
2022-09-21T20:21:03.173Z,88.70
2022-09-21T20:26:05.317Z,90.13
2022-09-21T20:31:04.602Z,91.50
2022-09-21T20:36:05.776Z,91.03
2022-09-21T20:41:06.893Z,91.18
2022-09-21T20:46:07.075Z,91.90
2022-09-21T20:51:08.331Z,90.87
2022-09-21T20:56:09.509Z,91.28
2022-09-21T21:01:10.784Z,91.28
2022-09-21T21:06:11.920Z,90.61
2022-09-21T21:11:13.138Z,91.33
2022-09-21T21:16:14.238Z,92.08
2022-09-21T21:21:15.339Z,91.22
2022-09-21T21:26:17.425Z,90.75
2022-09-21T21:31:20.818Z,91.61
2022-09-21T21:36:16.498Z,92.19
2022-09-21T21:41:17.756Z,92.74
2022-09-21T21:46:19.926Z,93.67
2022-09-21T21:51:19.259Z,93.87
2022-09-21T21:56:20.535Z,93.92
2022-09-21T22:01:21.959Z,95.40
2022-09-21T22:06:23.106Z,95.92
2022-09-21T22:11:24.267Z,95.40
2022-09-21T22:16:26.461Z,94.48
2022-09-21T22:21:25.568Z,94.58
2022-09-21T22:26:27.710Z,94.37
2022-09-21T22:31:27.848Z,93.96
2022-09-21T22:36:27.955Z,94.73
2022-09-21T22:41:27.220Z,96.31
2022-09-21T22:46:29.331Z,96.31
2022-09-21T22:51:28.458Z,95.53
2022-09-21T22:56:29.638Z,96.72
2022-09-21T23:01:30.850Z,96.83
2022-09-21T23:06:32.233Z,96.42
2022-09-21T23:11:33.450Z,97.18
2022-09-21T23:16:34.722Z,96.77
2022-09-21T23:21:35.936Z,96.52
2022-09-21T23:26:37.086Z,96.36
2022-09-21T23:31:42.353Z,96.67
2022-09-21T23:36:38.234Z,95.99
2022-09-21T23:41:41.455Z,98.71
2022-09-21T23:46:40.666Z,98.41
2022-09-21T23:51:41.877Z,99.13
2022-09-21T23:56:43.053Z,98.52
